createdAt,value
2023-09-01T00:16:13.212Z,10.4
2023-09-01T00:26:15.851Z,10.4
2023-09-01T00:36:18.073Z,10.4
2023-09-01T01:16:27.042Z,10.2
2023-09-01T01:36:31.607Z,10
2023-09-01T01:56:35.236Z,9.6
2023-09-01T02:16:39.856Z,9.5
2023-09-01T02:36:43.951Z,9.6
2023-09-01T02:56:48.138Z,9.5
2023-09-01T03:06:50.171Z,9.3
2023-09-01T03:16:52.480Z,9.2
2023-09-01T03:26:54.363Z,9.2
2023-09-01T03:36:56.653Z,9.2
2023-09-01T03:46:58.698Z,9.3
2023-09-01T03:57:00.839Z,9.5
2023-09-01T04:07:02.895Z,9.5
2023-09-01T04:17:05.504Z,9.5
2023-09-01T04:27:07.834Z,9.7
2023-09-01T04:37:09.955Z,9.8
2023-09-01T04:57:14.239Z,9.8
2023-09-01T05:07:16.804Z,10.1
2023-09-01T05:17:19.100Z,10.4
2023-09-01T05:27:21.311Z,10.6
2023-09-01T05:37:23.358Z,10.8
2023-09-01T05:47:25.908Z,11
2023-09-01T05:57:28.390Z,11.2
2023-09-01T06:07:30.818Z,11.4
2023-09-01T06:17:45.840Z,11.7
2023-09-01T06:27:35.766Z,11.9
2023-09-01T06:37:37.950Z,12.4
2023-09-01T06:47:40.497Z,12.8
2023-09-01T06:57:42.196Z,13.2
2023-09-01T07:07:44.664Z,13.5
2023-09-01T07:17:46.691Z,13.6
2023-09-01T07:27:48.960Z,13.6
2023-09-01T07:37:51.500Z,13.6
2023-09-01T07:48:01.393Z,13.7
2023-09-01T07:57:55.081Z,14
2023-09-01T08:07:57.346Z,14.2
2023-09-01T08:17:59.198Z,14.6
2023-09-01T08:28:00.871Z,14.6
2023-09-01T08:38:03.058Z,14.7
2023-09-01T08:58:07.392Z,15.4
2023-09-01T09:18:11.434Z,16
2023-09-01T09:38:16.353Z,16.1
2023-09-01T13:19:04.390Z,16.4
2023-09-01T13:29:06.180Z,16.5
2023-09-01T13:49:11.000Z,16.6
2023-09-01T14:09:15.377Z,16.9
2023-09-01T14:19:17.090Z,16.9
2023-09-01T14:39:20.731Z,17.2
2023-09-01T14:49:22.593Z,17.3
2023-09-01T15:09:27.334Z,17.7
2023-09-01T15:19:29.897Z,17.7
2023-09-01T15:29:32.540Z,17.7
2023-09-01T15:39:34.879Z,17.8
2023-09-01T15:49:37.278Z,17.8
2023-09-01T16:59:52.222Z,17.3
2023-09-01T17:09:54.059Z,17.2
2023-09-01T17:50:03.227Z,17.1
2023-09-01T18:00:04.985Z,17
2023-09-01T19:10:19.823Z,14.7
2023-09-01T19:30:24.342Z,14.2
2023-09-01T19:40:26.553Z,14
2023-09-01T19:50:28.718Z,13.8
2023-09-01T20:00:30.818Z,13.7
2023-09-01T20:10:33.338Z,13.5
2023-09-01T20:30:36.868Z,13.3
2023-09-01T20:40:38.696Z,13
2023-09-01T20:50:40.930Z,12.9
2023-09-01T21:00:42.868Z,13
2023-09-01T21:10:44.731Z,13
2023-09-01T21:20:46.750Z,13.2
2023-09-01T21:30:48.585Z,13.3
2023-09-01T21:40:50.310Z,13.3
2023-09-01T22:00:54.589Z,13.4
2023-09-01T22:10:56.469Z,13.4
2023-09-01T22:20:58.609Z,13.3
2023-09-01T22:31:01.070Z,13.2
2023-09-01T22:41:03.489Z,13.1
2023-09-01T22:51:05.916Z,12.9
2023-09-01T23:01:08.396Z,12.7
2023-09-01T23:21:12.774Z,12.7
2023-09-01T23:31:15.384Z,12.7
2023-09-01T23:41:17.175Z,12.8
2023-09-01T23:51:18.874Z,13.1
